Time;durP1;ratioP1;P1;durP2;ratioP2;P2;SDS_P1;SDS_P2;PMS_P1;PMS_P2;Temp;Humidity;BMP_temperature;BMP_pressure;BME280_temperature;BME280_humidity;BME280_pressure;Samples;Min_cycle;Max_cycle;Signal;HPM_P1;HPM_P2
2024/02/17 00:02:02;;;;;;;21.23;12.10;;;10.10;99.90;;;;;;5023243;28;20033;-87
2024/02/17 00:04:28;;;;;;;20.93;13.43;;;10.10;99.90;;;;;;5024312;28;20034;-87
2024/02/17 00:06:54;;;;;;;21.30;13.55;;;10.10;99.90;;;;;;5023250;28;20102;-86
2024/02/17 00:09:20;;;;;;;25.20;15.07;;;10.00;99.90;;;;;;5024408;28;20470;-87
2024/02/17 00:11:46;;;;;;;24.80;14.55;;;10.00;99.90;;;;;;5023395;28;20029;-87
2024/02/17 00:14:11;;;;;;;20.20;13.40;;;10.00;99.90;;;;;;5023646;28;20033;-86
2024/02/17 00:16:37;;;;;;;23.33;14.87;;;10.00;99.90;;;;;;5023970;28;20540;-86
2024/02/17 00:19:04;;;;;;;20.53;13.80;;;10.00;99.90;;;;;;5005618;28;20094;-87
2024/02/17 00:21:30;;;;;;;25.17;13.47;;;10.00;99.90;;;;;;5022330;28;20512;-86
2024/02/17 00:23:55;;;;;;;23.10;15.03;;;10.00;99.90;;;;;;5019654;28;20041;-87
2024/02/17 00:26:21;;;;;;;25.10;14.57;;;10.00;99.90;;;;;;5022123;28;20022;-87
2024/02/17 00:28:47;;;;;;;21.00;13.53;;;10.00;99.90;;;;;;5020757;28;20536;-85
2024/02/17 00:31:13;;;;;;;25.47;14.20;;;10.10;99.90;;;;;;5021174;28;20033;-86
2024/02/17 00:33:39;;;;;;;20.70;12.68;;;10.00;99.90;;;;;;5021299;28;20026;-86
2024/02/17 00:36:05;;;;;;;23.97;13.13;;;10.10;99.90;;;;;;5020609;28;20026;-86
2024/02/17 00:38:31;;;;;;;22.52;12.82;;;10.10;99.90;;;;;;5021888;28;20014;-87
2024/02/17 00:40:56;;;;;;;22.30;12.65;;;10.10;99.90;;;;;;5020119;28;20029;-87
2024/02/17 00:43:23;;;;;;;22.87;13.57;;;10.10;99.90;;;;;;5022325;28;20041;-87
2024/02/17 00:45:49;;;;;;;20.30;12.52;;;10.10;99.90;;;;;;5020483;28;20034;-86
2024/02/17 00:48:15;;;;;;;22.40;13.63;;;10.10;99.90;;;;;;5022981;28;20056;-86
2024/02/17 00:50:42;;;;;;;23.95;13.38;;;10.10;99.90;;;;;;5020625;28;20022;-86
2024/02/17 00:53:07;;;;;;;25.45;12.88;;;10.10;99.90;;;;;;5020310;28;20030;-85
2024/02/17 00:55:34;;;;;;;23.58;13.27;;;10.10;99.90;;;;;;5021185;28;20117;-86
2024/02/17 00:58:01;;;;;;;24.38;14.60;;;10.10;99.90;;;;;;5019802;28;20042;-85
2024/02/17 01:00:27;;;;;;;24.40;12.88;;;10.10;99.90;;;;;;5021503;28;20048;-86
2024/02/17 01:02:55;;;;;;;22.92;14.18;;;10.20;99.90;;;;;;5021062;28;20022;-86
2024/02/17 01:05:21;;;;;;;23.85;14.52;;;10.20;99.90;;;;;;5022088;28;20156;-86
2024/02/17 01:07:48;;;;;;;28.80;14.93;;;10.20;99.90;;;;;;5020038;28;20049;-86
2024/02/17 01:10:13;;;;;;;22.70;14.07;;;10.20;99.90;;;;;;5019364;28;20030;-88
2024/02/17 01:12:40;;;;;;;25.85;14.30;;;10.20;99.90;;;;;;5021522;28;20021;-87
2024/02/17 01:15:06;;;;;;;30.33;13.82;;;10.20;99.90;;;;;;5019975;28;20018;-88
2024/02/17 01:17:33;;;;;;;24.48;14.32;;;10.20;99.90;;;;;;5021331;28;20032;-88
2024/02/17 01:19:58;;;;;;;25.90;15.60;;;10.20;99.90;;;;;;5019697;28;20022;-87
2024/02/17 01:22:24;;;;;;;23.20;15.35;;;10.20;99.90;;;;;;5022340;28;20036;-87
2024/02/17 01:24:50;;;;;;;27.08;14.05;;;10.20;99.90;;;;;;5019965;28;20030;-87
2024/02/17 01:27:16;;;;;;;27.30;14.17;;;10.20;99.90;;;;;;5021521;28;20056;-88
2024/02/17 01:29:41;;;;;;;28.13;14.33;;;10.20;99.90;;;;;;5020664;28;20018;-88
2024/02/17 01:32:07;;;;;;;29.73;16.20;;;10.20;99.90;;;;;;5018978;28;20018;-87
2024/02/17 01:34:33;;;;;;;27.38;14.85;;;10.20;99.90;;;;;;5020970;28;20026;-87
2024/02/17 01:36:58;;;;;;;27.20;13.35;;;10.20;99.90;;;;;;5019296;28;20029;-88
2024/02/17 01:39:25;;;;;;;25.88;14.07;;;10.20;99.90;;;;;;5020704;28;20022;-88
2024/02/17 01:41:51;;;;;;;30.20;15.57;;;10.20;99.90;;;;;;5019614;28;20045;-88
2024/02/17 01:44:16;;;;;;;24.83;14.75;;;10.20;99.90;;;;;;5020470;28;20041;-88
2024/02/17 01:46:42;;;;;;;28.02;14.85;;;10.20;99.90;;;;;;5020600;28;20076;-87
2024/02/17 01:49:08;;;;;;;25.02;14.18;;;10.20;99.90;;;;;;5019276;28;20102;-87
2024/02/17 01:51:35;;;;;;;30.15;13.93;;;10.20;99.90;;;;;;5020588;28;20644;-87
2024/02/17 01:54:01;;;;;;;26.90;15.32;;;10.20;99.90;;;;;;5018260;28;20029;-87
2024/02/17 01:56:29;;;;;;;27.52;13.88;;;10.20;99.90;;;;;;5021853;28;20046;-86
2024/02/17 01:58:55;;;;;;;27.23;13.40;;;10.20;99.90;;;;;;5022602;28;20083;-88
2024/02/17 02:01:21;;;;;;;25.80;14.98;;;10.20;99.90;;;;;;5023169;28;20047;-88
2024/02/17 02:03:47;;;;;;;28.00;15.40;;;10.30;99.90;;;;;;5041337;28;20057;-88
2024/02/17 02:06:13;;;;;;;29.83;15.98;;;10.20;99.90;;;;;;5022271;28;20017;-87
2024/02/17 02:08:39;;;;;;;27.80;14.57;;;10.20;99.90;;;;;;5023635;28;20041;-88
2024/02/17 02:11:05;;;;;;;32.25;14.77;;;10.20;99.90;;;;;;5039391;28;20477;-87
2024/02/17 02:13:31;;;;;;;25.73;15.75;;;10.20;99.90;;;;;;5023723;28;20531;-88
2024/02/17 02:15:57;;;;;;;27.88;16.08;;;10.30;99.90;;;;;;5022385;28;20026;-87
2024/02/17 02:18:23;;;;;;;30.80;15.30;;;10.20;99.90;;;;;;5023033;28;20021;-88
2024/02/17 02:20:49;;;;;;;30.30;16.23;;;10.20;99.90;;;;;;5040156;28;20501;-86
2024/02/17 02:23:15;;;;;;;25.27;14.63;;;10.30;99.90;;;;;;5021816;28;20040;-86
2024/02/17 02:25:53;;;;;;;29.85;15.45;;;10.30;99.90;;;;;;5023227;28;20025;-85
2024/02/17 02:28:19;;;;;;;31.17;17.20;;;10.20;99.90;;;;;;5021710;28;20021;-85
2024/02/17 02:30:45;;;;;;;25.48;14.70;;;10.20;99.90;;;;;;5040462;28;20028;-86
2024/02/17 02:33:10;;;;;;;32.25;15.63;;;10.30;99.90;;;;;;5039747;28;20022;-85
2024/02/17 02:35:36;;;;;;;29.02;16.67;;;10.20;99.90;;;;;;5041304;28;20076;-85
2024/02/17 02:38:02;;;;;;;32.47;17.87;;;10.20;99.90;;;;;;5022252;28;20017;-86
2024/02/17 02:40:28;;;;;;;29.33;16.90;;;10.20;99.90;;;;;;5022136;28;20092;-86
2024/02/17 02:42:54;;;;;;;34.07;17.10;;;10.20;99.90;;;;;;5023147;28;20021;-87
2024/02/17 02:45:20;;;;;;;31.20;16.08;;;10.20;99.90;;;;;;5021120;28;20083;-85
2024/02/17 02:47:47;;;;;;;33.08;17.08;;;10.20;99.90;;;;;;5023244;28;20041;-86
2024/02/17 02:50:13;;;;;;;26.90;15.75;;;10.20;99.90;;;;;;5021581;28;20568;-86
2024/02/17 02:52:39;;;;;;;29.05;16.10;;;10.20;99.90;;;;;;5022438;28;20029;-86
2024/02/17 02:55:06;;;;;;;29.60;16.77;;;10.20;99.90;;;;;;5021824;28;20035;-86
2024/02/17 02:57:32;;;;;;;31.15;16.52;;;10.20;99.90;;;;;;5018193;28;20151;-86
2024/02/17 02:59:58;;;;;;;30.33;16.02;;;10.20;99.90;;;;;;5019480;28;20034;-86
2024/02/17 03:02:24;;;;;;;33.83;15.97;;;10.20;99.90;;;;;;5017942;28;20022;-86
2024/02/17 03:04:51;;;;;;;31.95;17.20;;;10.20;99.90;;;;;;5019582;28;20038;-85
2024/02/17 03:07:17;;;;;;;31.40;16.67;;;10.20;99.90;;;;;;5017617;28;20042;-86
2024/02/17 03:09:43;;;;;;;26.87;16.90;;;10.20;99.90;;;;;;5019272;28;20030;-85
2024/02/17 03:12:08;;;;;;;31.75;17.00;;;10.20;99.90;;;;;;5018062;28;20026;-85
2024/02/17 03:14:36;;;;;;;30.40;16.98;;;10.20;99.90;;;;;;5020088;28;20017;-86
2024/02/17 03:17:03;;;;;;;28.40;17.55;;;10.20;99.90;;;;;;5020729;28;20112;-85
2024/02/17 03:19:29;;;;;;;39.25;18.50;;;10.20;99.90;;;;;;5017898;28;20065;-86
2024/02/17 03:21:55;;;;;;;28.55;16.27;;;10.20;99.90;;;;;;5020651;28;20025;-85
2024/02/17 03:24:21;;;;;;;34.00;18.05;;;10.20;99.90;;;;;;5019279;28;20062;-86
2024/02/17 03:26:46;;;;;;;30.83;16.80;;;10.20;99.90;;;;;;5019416;28;20053;-86
2024/02/17 03:29:12;;;;;;;30.50;17.57;;;10.20;99.90;;;;;;5019764;28;20054;-86
2024/02/17 03:31:38;;;;;;;33.13;18.02;;;10.20;99.90;;;;;;5018032;28;20105;-86
2024/02/17 03:34:05;;;;;;;28.23;16.73;;;10.20;99.90;;;;;;5022265;28;20461;-85
2024/02/17 03:36:34;;;;;;;28.92;16.00;;;10.20;99.90;;;;;;5020967;28;20024;-86
2024/02/17 03:39:06;;;;;;;30.50;16.10;;;10.20;99.90;;;;;;5023128;28;20434;-85
2024/02/17 03:41:31;;;;;;;31.95;17.25;;;10.20;99.90;;;;;;5022660;28;20445;-86
2024/02/17 03:43:57;;;;;;;32.95;17.63;;;10.20;99.90;;;;;;5022523;28;20026;-85
2024/02/17 03:46:23;;;;;;;28.10;15.93;;;10.20;99.90;;;;;;5008693;28;20019;-85
2024/02/17 03:48:49;;;;;;;30.73;16.47;;;10.20;99.90;;;;;;5012513;28;20542;-85
2024/02/17 03:51:16;;;;;;;27.10;15.70;;;10.20;99.90;;;;;;5011136;28;20048;-85
2024/02/17 03:53:41;;;;;;;28.95;17.30;;;10.20;99.90;;;;;;5021838;28;20018;-85
2024/02/17 03:56:07;;;;;;;26.77;15.82;;;10.20;99.90;;;;;;5022979;28;20081;-86
2024/02/17 03:58:32;;;;;;;29.88;16.45;;;10.20;99.90;;;;;;5057066;28;20511;-85
2024/02/17 04:00:58;;;;;;;27.27;15.73;;;10.20;99.90;;;;;;5045429;28;20013;-86
2024/02/17 04:03:24;;;;;;;31.73;16.43;;;10.20;99.90;;;;;;5044241;28;20033;-85
2024/02/17 04:05:50;;;;;;;32.53;16.55;;;10.20;99.90;;;;;;5045156;28;20059;-85
2024/02/17 04:08:16;;;;;;;30.87;16.70;;;10.20;99.90;;;;;;5062918;28;20028;-85
2024/02/17 04:10:42;;;;;;;27.70;16.57;;;10.20;99.90;;;;;;5061875;28;20025;-85
2024/02/17 04:13:07;;;;;;;31.15;16.23;;;10.20;99.90;;;;;;5063143;28;20100;-85
2024/02/17 04:15:33;;;;;;;25.02;15.18;;;10.20;99.90;;;;;;5043775;28;20044;-86
2024/02/17 04:18:00;;;;;;;28.05;15.48;;;10.10;99.90;;;;;;5045162;28;20031;-85
2024/02/17 04:20:25;;;;;;;32.42;17.77;;;10.10;99.90;;;;;;5061862;28;20036;-84
2024/02/17 04:22:51;;;;;;;32.43;15.63;;;10.10;99.90;;;;;;5044353;28;20021;-85
2024/02/17 04:25:17;;;;;;;31.63;16.23;;;10.10;99.90;;;;;;5062436;28;20558;-84
2024/02/17 04:27:43;;;;;;;30.93;16.83;;;10.10;99.90;;;;;;5043577;28;20208;-85
2024/02/17 04:30:09;;;;;;;27.42;16.05;;;10.10;99.90;;;;;;5063227;28;20025;-86
2024/02/17 04:32:34;;;;;;;31.00;15.52;;;10.10;99.90;;;;;;5042628;28;20120;-85
2024/02/17 04:35:00;;;;;;;25.13;15.48;;;10.10;99.90;;;;;;5062949;28;20047;-85
2024/02/17 04:37:26;;;;;;;32.67;16.37;;;10.10;99.90;;;;;;5043314;28;20515;-84
2024/02/17 04:39:51;;;;;;;26.80;15.55;;;10.10;99.90;;;;;;5062368;28;20020;-86
2024/02/17 04:42:17;;;;;;;25.63;15.27;;;10.10;99.90;;;;;;5062107;28;20060;-86
2024/02/17 04:44:43;;;;;;;25.60;14.85;;;10.10;99.90;;;;;;5061339;28;20044;-86
2024/02/17 04:47:08;;;;;;;28.47;16.20;;;10.10;99.90;;;;;;5044276;28;20017;-85
2024/02/17 04:49:34;;;;;;;30.60;17.00;;;10.10;99.90;;;;;;5061079;28;20025;-85
2024/02/17 04:52:00;;;;;;;28.33;15.18;;;10.10;99.90;;;;;;5062735;28;20021;-85
2024/02/17 04:54:26;;;;;;;26.00;14.90;;;10.10;99.90;;;;;;5042906;28;20094;-84
2024/02/17 04:56:51;;;;;;;27.27;14.88;;;10.10;99.90;;;;;;5044080;28;20052;-86
2024/02/17 04:59:17;;;;;;;24.10;14.52;;;10.20;99.90;;;;;;5043343;28;20017;-87
2024/02/17 05:01:44;;;;;;;23.02;13.45;;;10.10;99.90;;;;;;5061433;28;20025;-88
2024/02/17 05:04:10;;;;;;;31.43;17.43;;;10.20;99.90;;;;;;5062547;28;20044;-86
2024/02/17 05:06:36;;;;;;;27.35;14.90;;;10.10;99.90;;;;;;5061162;28;20025;-86
2024/02/17 05:09:02;;;;;;;21.65;13.85;;;10.10;99.90;;;;;;5044998;28;20044;-86
2024/02/17 05:11:28;;;;;;;31.75;14.82;;;10.10;99.90;;;;;;5060762;28;20028;-85
2024/02/17 05:13:54;;;;;;;27.05;14.98;;;10.10;99.90;;;;;;5062266;28;20025;-86
2024/02/17 05:16:19;;;;;;;23.38;14.13;;;10.10;99.90;;;;;;5061000;28;20017;-87
2024/02/17 05:18:45;;;;;;;23.17;14.05;;;10.10;99.90;;;;;;5043670;28;20371;-87
2024/02/17 05:21:10;;;;;;;29.38;14.88;;;10.10;99.90;;;;;;5043997;28;20455;-87
2024/02/17 05:23:36;;;;;;;27.35;14.20;;;10.10;99.90;;;;;;5042842;28;20439;-85
2024/02/17 05:26:02;;;;;;;30.58;14.38;;;10.10;99.90;;;;;;5061983;28;20013;-86
2024/02/17 05:28:29;;;;;;;22.98;14.73;;;10.10;99.90;;;;;;5060075;28;20464;-85
2024/02/17 05:30:55;;;;;;;33.10;15.13;;;10.10;99.90;;;;;;5043295;28;20032;-87
2024/02/17 05:33:20;;;;;;;27.88;14.82;;;10.10;99.90;;;;;;5060715;28;20021;-86
2024/02/17 05:35:47;;;;;;;21.90;13.13;;;10.10;99.90;;;;;;5043521;28;20104;-86
2024/02/17 05:38:13;;;;;;;22.65;12.95;;;10.10;99.90;;;;;;5043102;28;20051;-85
2024/02/17 05:40:39;;;;;;;25.58;13.95;;;10.10;99.90;;;;;;5042337;28;20013;-87
2024/02/17 05:43:05;;;;;;;27.73;13.77;;;10.10;99.90;;;;;;5043608;28;20013;-86
2024/02/17 05:45:31;;;;;;;25.55;14.18;;;10.10;99.90;;;;;;5059910;28;20040;-85
2024/02/17 05:47:56;;;;;;;25.17;13.85;;;10.10;99.90;;;;;;5043507;28;20412;-85
2024/02/17 05:50:22;;;;;;;23.73;14.43;;;10.10;99.90;;;;;;5042218;28;20025;-85
2024/02/17 05:52:49;;;;;;;23.03;12.77;;;10.10;99.90;;;;;;5060951;28;20556;-86
2024/02/17 05:55:16;;;;;;;25.25;13.05;;;10.10;99.90;;;;;;5042519;28;20575;-86
2024/02/17 05:57:42;;;;;;;22.83;13.65;;;10.10;99.90;;;;;;5059788;28;20064;-85
2024/02/17 06:00:09;;;;;;;25.27;13.20;;;10.10;99.90;;;;;;5029177;28;20497;-86
2024/02/17 06:02:34;;;;;;;30.77;14.80;;;10.10;99.90;;;;;;5040197;28;20021;-85
2024/02/17 06:05:02;;;;;;;22.20;14.43;;;10.10;99.90;;;;;;5043320;28;20029;-87
2024/02/17 06:07:28;;;;;;;30.23;14.50;;;10.10;99.90;;;;;;5033403;28;20036;-85
2024/02/17 06:09:54;;;;;;;23.95;13.45;;;10.10;99.90;;;;;;5060970;28;20033;-86
2024/02/17 06:12:20;;;;;;;25.95;14.32;;;10.10;99.90;;;;;;5048555;28;20098;-86
2024/02/17 06:14:45;;;;;;;22.92;13.43;;;10.10;99.90;;;;;;5042096;28;20076;-86
2024/02/17 06:17:19;;;;;;;24.55;14.27;;;10.20;99.90;;;;;;5037892;28;20056;-86
2024/02/17 06:22:29;;;;;;;;;;;10.10;99.90;;;;;;5050517;28;20071;-86
2024/02/17 06:24:54;;;;;;;22.00;11.50;;;10.10;99.90;;;;;;5040301;28;19952;-85
2024/02/17 06:27:20;;;;;;;22.48;12.05;;;10.10;99.90;;;;;;5030043;28;20089;-85
2024/02/17 06:29:45;;;;;;;19.75;13.32;;;10.10;99.90;;;;;;5041948;28;20055;-84
2024/02/17 06:32:11;;;;;;;26.92;13.57;;;10.10;99.90;;;;;;5040589;28;20024;-84
2024/02/17 06:34:38;;;;;;;25.80;14.63;;;10.10;99.90;;;;;;5042459;28;20013;-85
2024/02/17 06:37:05;;;;;;;25.55;14.50;;;10.10;99.90;;;;;;5041263;28;20052;-84
2024/02/17 06:39:31;;;;;;;32.00;15.77;;;10.00;99.90;;;;;;5060016;28;20354;-85
2024/02/17 06:41:56;;;;;;;23.73;15.20;;;10.00;99.90;;;;;;5059715;28;20028;-86
2024/02/17 06:44:25;;;;;;;30.70;16.43;;;10.00;99.90;;;;;;5042206;28;20041;-86
2024/02/17 06:46:53;;;;;;;28.83;15.18;;;10.10;99.90;;;;;;5042475;28;20096;-85
2024/02/17 06:49:19;;;;;;;26.58;16.08;;;10.00;99.90;;;;;;5041499;28;20021;-86
2024/02/17 06:51:45;;;;;;;24.90;16.27;;;10.00;99.90;;;;;;5042740;28;20051;-86
2024/02/17 06:54:11;;;;;;;27.97;16.77;;;10.00;99.90;;;;;;5042555;28;20052;-86
2024/02/17 06:56:36;;;;;;;24.17;15.77;;;10.00;99.90;;;;;;5061035;28;20031;-86
2024/02/17 06:59:02;;;;;;;31.23;16.77;;;10.00;99.90;;;;;;5040937;28;20021;-86
2024/02/17 07:01:28;;;;;;;24.85;16.25;;;10.00;99.90;;;;;;5042530;28;20022;-86
2024/02/17 07:03:53;;;;;;;23.83;15.50;;;10.00;99.90;;;;;;5041876;28;20037;-86
2024/02/17 07:06:19;;;;;;;23.80;15.30;;;10.00;99.90;;;;;;5060102;28;20021;-86
2024/02/17 07:08:48;;;;;;;26.63;14.85;;;10.00;99.90;;;;;;5043782;28;20036;-86
2024/02/17 07:11:17;;;;;;;23.13;14.18;;;10.00;99.90;;;;;;5062833;28;20021;-86
2024/02/17 07:13:43;;;;;;;23.08;14.13;;;10.00;99.90;;;;;;5046663;28;20029;-86
2024/02/17 07:16:10;;;;;;;23.98;14.65;;;10.00;99.90;;;;;;5063441;28;20500;-87
2024/02/17 07:18:37;;;;;;;23.40;14.80;;;10.10;99.90;;;;;;5046533;28;20048;-87
2024/02/17 07:21:04;;;;;;;22.90;14.43;;;10.10;99.90;;;;;;5045679;28;20095;-86
2024/02/17 07:23:30;;;;;;;26.25;14.50;;;10.10;99.90;;;;;;5045390;28;20049;-87
2024/02/17 07:25:57;;;;;;;24.50;13.50;;;10.10;99.90;;;;;;5064344;28;20320;-86
2024/02/17 07:28:22;;;;;;;22.98;13.70;;;10.10;99.90;;;;;;5062247;28;20079;-86
2024/02/17 07:30:49;;;;;;;25.20;14.55;;;10.10;99.90;;;;;;5064124;28;20544;-86
2024/02/17 07:33:16;;;;;;;23.02;13.45;;;10.10;99.90;;;;;;5062941;28;20025;-87
2024/02/17 07:35:44;;;;;;;29.13;14.02;;;10.10;99.90;;;;;;5045696;28;20104;-86
2024/02/17 07:38:11;;;;;;;23.55;14.95;;;10.10;99.90;;;;;;5045196;28;20017;-85
2024/02/17 07:40:37;;;;;;;22.38;12.93;;;10.10;99.90;;;;;;5044670;28;20021;-84
2024/02/17 07:43:04;;;;;;;23.15;13.20;;;10.10;99.90;;;;;;5063610;28;20499;-84
2024/02/17 07:45:30;;;;;;;24.20;12.55;;;10.20;99.90;;;;;;5043679;28;20455;-85
2024/02/17 07:47:55;;;;;;;22.75;13.73;;;10.20;99.90;;;;;;5051395;28;20029;-84
2024/02/17 07:50:21;;;;;;;25.90;13.35;;;10.20;99.90;;;;;;5061847;28;20036;-84
2024/02/17 07:52:47;;;;;;;21.70;12.77;;;10.20;99.90;;;;;;5045663;28;20536;-84
2024/02/17 07:55:12;;;;;;;22.92;12.95;;;10.30;99.90;;;;;;5062709;28;20469;-83
2024/02/17 07:57:38;;;;;;;23.02;12.73;;;10.30;99.90;;;;;;5040620;28;20056;-85
2024/02/17 08:00:04;;;;;;;21.23;12.10;;;10.30;99.90;;;;;;5041599;28;20021;-84
2024/02/17 08:02:30;;;;;;;25.33;12.63;;;10.40;99.90;;;;;;5042069;28;20132;-85
2024/02/17 08:04:56;;;;;;;20.92;11.93;;;10.40;99.90;;;;;;5043611;28;20071;-84
2024/02/17 08:07:22;;;;;;;20.23;12.00;;;10.40;99.90;;;;;;5042099;28;20053;-84
2024/02/17 08:09:48;;;;;;;20.95;11.32;;;10.50;99.90;;;;;;5041806;28;20053;-84
2024/02/17 08:12:14;;;;;;;20.55;11.32;;;10.50;99.90;;;;;;5040391;28;20014;-84
2024/02/17 08:14:40;;;;;;;20.70;11.98;;;10.50;99.90;;;;;;5041515;28;20032;-84
2024/02/17 08:17:07;;;;;;;21.88;12.30;;;10.50;99.90;;;;;;5042554;28;20096;-84
2024/02/17 08:19:32;;;;;;;19.80;12.20;;;10.50;99.90;;;;;;5040023;28;20025;-84
2024/02/17 08:21:58;;;;;;;23.45;12.75;;;10.60;99.90;;;;;;5041856;28;20021;-84
2024/02/17 08:24:24;;;;;;;22.15;12.20;;;10.60;99.90;;;;;;5039781;28;20049;-84
2024/02/17 08:26:49;;;;;;;18.15;11.45;;;10.70;99.90;;;;;;5042912;28;20109;-84
2024/02/17 08:29:15;;;;;;;21.02;11.07;;;10.70;99.90;;;;;;5039291;28;20026;-84
2024/02/17 08:31:48;;;;;;;21.38;12.15;;;10.70;99.90;;;;;;5041266;28;20039;-84
2024/02/17 08:34:13;;;;;;;22.40;12.80;;;10.80;99.90;;;;;;5040756;28;20093;-84
2024/02/17 08:36:39;;;;;;;22.25;13.02;;;10.90;99.90;;;;;;5039506;28;20021;-84
2024/02/17 08:39:04;;;;;;;21.92;11.73;;;10.90;99.90;;;;;;5042270;28;20021;-84
2024/02/17 08:41:30;;;;;;;21.75;13.02;;;10.90;99.90;;;;;;5039974;28;20024;-84
2024/02/17 08:43:56;;;;;;;20.67;12.77;;;10.90;99.90;;;;;;5042462;28;20045;-84
2024/02/17 08:46:21;;;;;;;23.65;13.52;;;10.90;99.90;;;;;;5040218;28;20021;-84
2024/02/17 08:48:47;;;;;;;20.55;12.65;;;11.00;99.90;;;;;;5040630;28;20089;-84
2024/02/17 08:51:13;;;;;;;17.83;11.85;;;11.00;99.90;;;;;;5040843;28;20046;-84
2024/02/17 08:53:38;;;;;;;21.38;12.00;;;11.10;99.90;;;;;;5041274;28;20025;-84
2024/02/17 08:56:04;;;;;;;22.30;11.63;;;11.10;99.90;;;;;;5041168;28;20405;-84
2024/02/17 08:58:30;;;;;;;22.92;12.35;;;11.20;99.90;;;;;;5055340;28;20045;-83
2024/02/17 09:00:57;;;;;;;23.70;12.52;;;11.20;99.90;;;;;;5044487;28;20021;-83
2024/02/17 09:03:23;;;;;;;17.85;11.45;;;11.20;99.90;;;;;;5060885;28;20032;-83
2024/02/17 09:05:49;;;;;;;23.65;12.98;;;11.20;99.90;;;;;;5043787;28;20061;-85
2024/02/17 09:08:15;;;;;;;22.15;13.32;;;11.20;99.90;;;;;;5043173;28;20020;-84
2024/02/17 09:10:40;;;;;;;22.30;13.00;;;11.20;99.90;;;;;;5061184;28;20097;-84
2024/02/17 09:13:06;;;;;;;25.60;12.98;;;11.30;99.90;;;;;;5061359;28;20017;-84
2024/02/17 09:15:33;;;;;;;26.85;13.95;;;11.30;99.90;;;;;;5042308;28;20315;-85
2024/02/17 09:18:00;;;;;;;19.73;11.88;;;11.40;99.90;;;;;;5043373;28;20111;-85
2024/02/17 09:20:26;;;;;;;28.75;13.00;;;11.40;99.90;;;;;;5059935;28;20025;-85
2024/02/17 09:22:52;;;;;;;22.98;12.65;;;11.50;99.90;;;;;;5043472;28;20028;-84
2024/02/17 09:25:19;;;;;;;24.40;14.75;;;11.50;99.90;;;;;;5060941;28;20068;-84
2024/02/17 09:27:46;;;;;;;26.42;13.25;;;11.50;99.90;;;;;;5060997;28;20055;-86
2024/02/17 09:30:13;;;;;;;23.08;13.55;;;11.60;99.90;;;;;;5061907;28;20017;-85
2024/02/17 09:32:38;;;;;;;22.70;12.57;;;11.60;99.90;;;;;;5041113;28;20020;-85
2024/02/17 09:35:05;;;;;;;22.95;13.25;;;11.60;99.90;;;;;;5061921;28;20424;-84
2024/02/17 09:37:30;;;;;;;23.10;13.15;;;11.70;99.90;;;;;;5042053;28;20063;-84
2024/02/17 09:39:56;;;;;;;21.00;12.43;;;11.80;99.90;;;;;;5061622;28;20017;-84
2024/02/17 09:42:22;;;;;;;18.00;12.23;;;11.80;99.90;;;;;;5060676;28;20568;-85
2024/02/17 09:44:48;;;;;;;20.98;13.82;;;11.80;99.90;;;;;;5042875;28;20028;-85
2024/02/17 09:47:15;;;;;;;25.70;13.35;;;11.90;99.90;;;;;;5043026;28;20059;-85
2024/02/17 09:49:42;;;;;;;29.60;14.65;;;11.90;99.90;;;;;;5042011;28;20087;-84
2024/02/17 09:52:10;;;;;;;22.95;13.32;;;11.90;99.90;;;;;;5061309;28;20368;-87
2024/02/17 09:54:37;;;;;;;20.73;12.20;;;12.00;99.90;;;;;;5041870;28;20029;-84
2024/02/17 09:57:05;;;;;;;23.08;12.25;;;12.00;99.90;;;;;;5060773;28;20036;-85
2024/02/17 09:59:30;;;;;;;19.52;11.98;;;12.10;99.90;;;;;;5041551;28;20477;-84
2024/02/17 10:01:57;;;;;;;21.52;12.18;;;12.20;99.90;;;;;;5041652;28;20025;-85
2024/02/17 10:04:23;;;;;;;16.60;10.70;;;12.20;99.90;;;;;;5042230;28;20035;-84
2024/02/17 10:06:59;;;;;;;17.77;11.43;;;12.30;99.90;;;;;;5059314;28;20017;-84
2024/02/17 10:09:27;;;;;;;19.67;10.57;;;12.30;99.90;;;;;;5042505;28;20382;-84
2024/02/17 10:11:53;;;;;;;19.13;10.63;;;12.40;99.90;;;;;;5059661;28;20025;-83
2024/02/17 10:14:22;;;;;;;20.73;11.25;;;12.40;99.90;;;;;;5061182;28;20025;-82
2024/02/17 10:16:55;;;;;;;18.98;10.70;;;12.50;99.90;;;;;;5042628;28;20021;-83
2024/02/17 10:19:21;;;;;;;19.95;12.05;;;12.60;99.90;;;;;;5060034;28;20040;-86
2024/02/17 10:21:47;;;;;;;17.00;10.65;;;12.60;99.90;;;;;;5042587;28;20088;-84
2024/02/17 10:24:13;;;;;;;19.25;11.48;;;12.70;99.90;;;;;;5059372;28;20057;-84
2024/02/17 10:26:39;;;;;;;20.33;11.70;;;12.70;99.90;;;;;;5043206;28;20036;-83
2024/02/17 10:29:06;;;;;;;18.65;9.80;;;12.70;99.90;;;;;;5059402;28;20032;-83
2024/02/17 10:31:31;;;;;;;19.58;10.70;;;12.70;99.90;;;;;;5042250;28;20044;-84
2024/02/17 10:33:57;;;;;;;18.52;10.57;;;12.80;99.90;;;;;;5042001;28;20094;-83
2024/02/17 10:36:25;;;;;;;19.95;11.02;;;12.80;99.90;;;;;;5041247;28;20021;-83
2024/02/17 10:38:53;;;;;;;18.75;11.00;;;12.90;99.90;;;;;;5060797;28;20018;-84
2024/02/17 10:41:19;;;;;;;17.33;10.95;;;12.90;99.90;;;;;;5059115;28;20021;-84
2024/02/17 10:43:47;;;;;;;18.90;10.48;;;13.00;99.90;;;;;;5064179;28;20425;-84
2024/02/17 10:46:22;;;;;;;20.23;10.68;;;13.10;99.90;;;;;;5063261;28;20079;-83
2024/02/17 10:49:03;;;;;;;16.38;9.35;;;13.10;99.90;;;;;;5064234;28;20079;-83
2024/02/17 10:51:29;;;;;;;16.13;9.50;;;13.20;99.90;;;;;;5064461;28;20018;-83
2024/02/17 10:54:02;;;;;;;14.25;9.65;;;13.30;99.90;;;;;;5062193;28;20029;-84
2024/02/17 10:56:28;;;;;;;20.73;10.20;;;13.20;99.90;;;;;;5063693;28;20108;-83
2024/02/17 10:58:56;;;;;;;16.58;8.25;;;13.30;99.90;;;;;;5062193;28;20037;-84
2024/02/17 11:01:27;;;;;;;16.98;9.38;;;13.30;99.90;;;;;;5064648;28;20052;-83
2024/02/17 11:03:55;;;;;;;16.35;9.30;;;13.30;99.90;;;;;;5045794;28;20059;-83
2024/02/17 11:06:21;;;;;;;15.40;8.57;;;13.40;99.90;;;;;;5046042;28;20025;-83
2024/02/17 11:08:47;;;;;;;18.63;10.35;;;13.30;99.90;;;;;;5064309;28;20020;-83
2024/02/17 11:11:25;;;;;;;17.83;8.30;;;13.30;99.90;;;;;;5062887;28;20085;-83
2024/02/17 11:13:53;;;;;;;18.00;9.38;;;13.30;99.90;;;;;;5046443;28;20036;-84
2024/02/17 11:16:19;;;;;;;15.32;8.68;;;13.30;99.90;;;;;;5063279;28;20389;-83
2024/02/17 11:18:49;;;;;;;20.10;9.40;;;13.30;99.90;;;;;;5045804;28;20043;-83
2024/02/17 11:21:24;;;;;;;16.75;9.48;;;13.30;99.90;;;;;;5044905;28;20036;-83
2024/02/17 11:23:49;;;;;;;18.58;10.57;;;13.30;99.90;;;;;;5062600;28;20033;-83
2024/02/17 11:26:16;;;;;;;18.50;10.70;;;13.30;99.90;;;;;;5064586;28;20444;-83
2024/02/17 11:28:42;;;;;;;16.40;9.70;;;13.30;99.90;;;;;;5044491;28;20020;-83
2024/02/17 11:31:10;;;;;;;20.77;10.35;;;13.20;99.90;;;;;;5063767;28;20029;-83
2024/02/17 11:33:36;;;;;;;17.02;9.68;;;13.20;99.90;;;;;;5044049;28;20050;-84
2024/02/17 11:36:03;;;;;;;16.83;8.60;;;13.20;99.90;;;;;;5045631;28;20061;-84
2024/02/17 11:38:30;;;;;;;17.98;9.13;;;13.30;99.90;;;;;;5045349;28;20059;-83
2024/02/17 11:41:00;;;;;;;18.45;9.90;;;13.30;99.90;;;;;;5062395;28;20052;-84
2024/02/17 11:43:36;;;;;;;21.13;9.88;;;13.20;99.90;;;;;;5063600;28;20020;-83
2024/02/17 11:46:03;;;;;;;17.95;8.90;;;13.20;99.90;;;;;;5044126;28;20021;-83
2024/02/17 11:48:30;;;;;;;17.30;9.95;;;13.30;99.90;;;;;;5063758;28;20377;-83
2024/02/17 11:51:06;;;;;;;17.25;10.07;;;13.30;99.90;;;;;;5063060;28;20040;-83
2024/02/17 11:53:32;;;;;;;16.65;9.52;;;13.30;99.90;;;;;;5043918;28;20025;-83
2024/02/17 11:56:01;;;;;;;14.25;9.00;;;13.20;99.90;;;;;;5062878;28;20112;-83
2024/02/17 11:58:27;;;;;;;22.35;9.55;;;13.10;99.90;;;;;;5043888;28;20454;-82
2024/02/17 12:00:57;;;;;;;16.77;9.07;;;13.00;99.90;;;;;;5063774;28;20029;-84
2024/02/17 12:03:29;;;;;;;20.70;9.30;;;13.00;99.90;;;;;;5043903;28;20028;-83
2024/02/17 12:06:00;;;;;;;17.23;9.40;;;12.90;99.90;;;;;;5045248;28;20021;-84
2024/02/17 12:08:30;;;;;;;18.08;9.25;;;12.90;99.90;;;;;;5062490;28;20021;-82
2024/02/17 12:10:56;;;;;;;15.40;8.30;;;12.90;99.90;;;;;;5062579;28;20029;-83
2024/02/17 12:13:22;;;;;;;17.25;8.85;;;12.90;99.90;;;;;;5063450;28;20029;-85
2024/02/17 12:15:48;;;;;;;17.40;9.50;;;12.90;99.90;;;;;;5043763;28;20017;-84
2024/02/17 12:18:16;;;;;;;21.55;9.10;;;13.00;99.90;;;;;;5044687;28;20105;-84
2024/02/17 12:20:43;;;;;;;19.00;8.93;;;13.00;99.90;;;;;;5062034;28;20079;-84
2024/02/17 12:23:10;;;;;;;16.52;9.15;;;13.00;99.90;;;;;;5044548;28;20028;-84
2024/02/17 12:25:39;;;;;;;13.98;7.88;;;13.10;99.90;;;;;;5062464;28;20055;-84
2024/02/17 12:28:08;;;;;;;18.95;8.27;;;13.10;99.90;;;;;;5043482;28;20091;-83